createdAt,value
2019-03-22T00:01:41.011Z,45.70
2019-03-22T00:04:13.705Z,45.70
2019-03-22T00:06:46.166Z,45.80
2019-03-22T00:09:19.027Z,45.90
2019-03-22T00:11:53.337Z,46.10
2019-03-22T00:14:26.059Z,46.20
2019-03-22T00:16:58.563Z,46.20
2019-03-22T00:19:31.140Z,46.40
2019-03-22T00:22:05.806Z,46.20
2019-03-22T00:24:38.328Z,46.40
2019-03-22T00:27:16.667Z,46.50
2019-03-22T00:29:47.591Z,47.20
2019-03-22T00:32:20.199Z,46.50
2019-03-22T00:34:52.822Z,46.50
2019-03-22T00:37:25.579Z,46.60
2019-03-22T00:40:00.238Z,46.70
2019-03-22T00:42:36.313Z,46.90
2019-03-22T00:45:09.509Z,46.60
2019-03-22T00:47:42.002Z,46.80
2019-03-22T00:50:15.133Z,46.80
2019-03-22T00:52:47.734Z,47.00
2019-03-22T00:55:20.204Z,47.10
2019-03-22T00:57:52.745Z,47.30
2019-03-22T01:00:25.491Z,47.40
2019-03-22T01:02:58.188Z,47.20
2019-03-22T01:05:30.690Z,47.40
2019-03-22T01:08:03.370Z,47.30
2019-03-22T01:10:36.064Z,47.40
2019-03-22T01:13:08.551Z,47.60
2019-03-22T01:15:41.183Z,47.60
2019-03-22T01:18:13.854Z,47.50
2019-03-22T01:20:46.459Z,47.50
2019-03-22T01:23:24.585Z,47.60
2019-03-22T01:25:55.522Z,47.60
2019-03-22T01:28:28.288Z,47.70
2019-03-22T01:31:00.946Z,47.70
2019-03-22T01:33:33.476Z,47.70
2019-03-22T01:36:06.329Z,47.80
2019-03-22T01:38:38.947Z,47.90
2019-03-22T01:41:11.432Z,47.90
2019-03-22T01:43:44.020Z,48.00
2019-03-22T01:46:16.624Z,48.10
2019-03-22T01:48:49.134Z,48.70
2019-03-22T01:51:21.629Z,48.20
2019-03-22T01:53:54.302Z,48.30
2019-03-22T01:56:26.898Z,48.80
2019-03-22T01:58:59.559Z,48.20
2019-03-22T02:01:32.049Z,48.30
2019-03-22T02:04:04.517Z,48.30
2019-03-22T02:06:37.081Z,48.30
2019-03-22T02:09:10.261Z,48.20
2019-03-22T02:11:42.810Z,48.40
2019-03-22T02:14:15.288Z,48.50
2019-03-22T02:16:47.722Z,48.60
2019-03-22T02:19:20.608Z,48.60
2019-03-22T02:21:53.138Z,48.60
2019-03-22T02:24:25.672Z,48.70
2019-03-22T02:26:58.114Z,48.60
2019-03-22T02:29:30.690Z,48.70
2019-03-22T02:32:03.214Z,48.60
2019-03-22T02:34:35.696Z,48.70
2019-03-22T02:37:08.228Z,48.80
2019-03-22T02:39:41.160Z,48.80
2019-03-22T02:42:13.796Z,48.60
2019-03-22T02:44:46.462Z,48.70
2019-03-22T02:47:18.970Z,49.00
2019-03-22T02:49:51.494Z,49.00
2019-03-22T02:52:23.958Z,49.10
2019-03-22T02:54:56.438Z,49.10
2019-03-22T02:57:28.871Z,49.10
2019-03-22T03:00:01.364Z,49.20
2019-03-22T03:02:35.069Z,49.10
2019-03-22T03:05:08.685Z,49.20
2019-03-22T03:07:41.181Z,49.30
2019-03-22T03:10:14.144Z,49.30
2019-03-22T03:12:46.766Z,49.40
2019-03-22T03:15:19.246Z,49.50
2019-03-22T03:17:51.751Z,49.50
2019-03-22T03:20:24.232Z,49.50
2019-03-22T03:22:56.694Z,49.50
2019-03-22T03:25:29.157Z,49.50
2019-03-22T03:28:01.648Z,49.50
2019-03-22T03:30:34.237Z,49.40
2019-03-22T03:33:06.864Z,50.10
2019-03-22T03:35:39.342Z,49.60
2019-03-22T03:38:11.972Z,49.60
2019-03-22T03:40:44.433Z,49.70
2019-03-22T03:43:16.961Z,49.70
2019-03-22T03:45:49.470Z,49.70
2019-03-22T03:48:22.291Z,49.90
2019-03-22T03:50:54.941Z,49.90
2019-03-22T03:53:27.415Z,50.00
2019-03-22T03:55:59.873Z,50.00
2019-03-22T03:58:32.411Z,50.10
2019-03-22T04:01:04.953Z,50.00
2019-03-22T04:03:37.423Z,50.00
2019-03-22T04:06:12.329Z,50.00
2019-03-22T04:08:44.872Z,50.00
2019-03-22T04:11:17.347Z,50.20
2019-03-22T04:13:49.881Z,50.20
2019-03-22T04:16:22.372Z,50.20
2019-03-22T04:18:54.838Z,50.20
2019-03-22T04:21:27.349Z,50.30
2019-03-22T04:23:59.839Z,50.20
2019-03-22T04:26:32.318Z,50.30
2019-03-22T04:29:07.969Z,50.40
2019-03-22T04:31:39.092Z,50.30
2019-03-22T04:34:11.552Z,51.00
2019-03-22T04:36:44.063Z,50.30
2019-03-22T04:39:16.673Z,50.30
2019-03-22T04:41:49.454Z,50.40
2019-03-22T04:44:22.422Z,51.30
2019-03-22T04:46:55.845Z,51.30
2019-03-22T04:49:29.503Z,51.40
2019-03-22T04:52:02.234Z,51.50
2019-03-22T04:54:37.881Z,51.60
2019-03-22T04:57:12.976Z,51.50
2019-03-22T04:59:48.545Z,51.40
2019-03-22T05:02:21.916Z,51.50
2019-03-22T05:04:54.961Z,51.60
2019-03-22T05:07:27.630Z,51.50
2019-03-22T05:10:00.628Z,51.40
2019-03-22T05:12:34.104Z,51.50
2019-03-22T05:15:09.469Z,51.60
2019-03-22T05:17:43.241Z,51.60
2019-03-22T05:20:17.370Z,51.60
2019-03-22T05:22:51.151Z,51.80
2019-03-22T05:25:25.530Z,51.70
2019-03-22T05:28:00.303Z,51.80
2019-03-22T05:31:37.525Z,51.70
2019-03-22T05:34:10.231Z,51.90
2019-03-22T05:36:42.707Z,51.60
2019-03-22T05:39:15.231Z,51.70
2019-03-22T05:41:47.730Z,51.90
2019-03-22T05:44:20.249Z,52.00
2019-03-22T05:46:53.954Z,51.80
2019-03-22T05:49:26.431Z,51.80
2019-03-22T05:51:59.395Z,52.50
2019-03-22T05:54:31.898Z,52.00
2019-03-22T05:57:12.834Z,52.10
2019-03-22T05:59:42.648Z,52.00
2019-03-22T06:02:12.887Z,52.10
2019-03-22T06:04:45.420Z,52.10
2019-03-22T06:07:17.902Z,52.10
2019-03-22T06:09:50.361Z,52.20
2019-03-22T06:12:22.975Z,52.20
2019-03-22T06:14:55.603Z,52.20
2019-03-22T06:17:28.124Z,52.40
2019-03-22T06:20:00.657Z,52.40
2019-03-22T06:22:33.305Z,52.40
2019-03-22T06:25:06.210Z,52.50
2019-03-22T06:27:38.713Z,52.60
2019-03-22T06:30:12.140Z,52.60
2019-03-22T06:32:44.584Z,52.60
2019-03-22T06:35:17.073Z,52.60
2019-03-22T06:37:49.697Z,52.60
2019-03-22T06:40:22.202Z,51.90
2019-03-22T06:42:54.809Z,51.90
2019-03-22T06:45:27.364Z,52.00
2019-03-22T06:48:00.198Z,52.00
2019-03-22T06:50:33.941Z,52.00
2019-03-22T06:53:06.461Z,52.00
2019-03-22T06:55:39.195Z,52.10
2019-03-22T06:58:11.822Z,52.10
2019-03-22T07:00:44.315Z,52.10
2019-03-22T07:03:16.787Z,52.20
2019-03-22T07:05:49.715Z,52.10
2019-03-22T07:08:22.323Z,52.10
2019-03-22T07:10:54.734Z,52.00
2019-03-22T07:13:27.352Z,51.90
2019-03-22T07:16:00.249Z,52.00
2019-03-22T07:18:32.848Z,52.00
2019-03-22T07:21:05.422Z,52.10
2019-03-22T07:23:37.930Z,52.10
2019-03-22T07:26:10.550Z,52.20
2019-03-22T07:28:43.143Z,52.20
2019-03-22T07:31:15.637Z,52.30
2019-03-22T07:33:48.367Z,52.20
2019-03-22T07:36:20.859Z,52.20
2019-03-22T07:38:53.445Z,52.20
2019-03-22T07:41:25.987Z,52.10
2019-03-22T07:43:58.567Z,52.20
2019-03-22T07:46:31.106Z,52.90
2019-03-22T07:49:04.264Z,52.30
2019-03-22T07:51:36.983Z,52.20
2019-03-22T07:54:09.528Z,52.40
2019-03-22T07:56:42.038Z,52.50
2019-03-22T07:59:14.621Z,52.50
2019-03-22T08:01:48.327Z,52.50
2019-03-22T08:04:20.961Z,52.40
2019-03-22T08:06:54.836Z,52.40
2019-03-22T08:09:27.395Z,52.40
2019-03-22T08:12:00.075Z,52.30
2019-03-22T08:14:34.139Z,52.30
2019-03-22T08:17:06.773Z,52.30
2019-03-22T08:19:39.311Z,52.30
2019-03-22T08:22:11.969Z,52.40
2019-03-22T08:24:44.515Z,52.30
2019-03-22T08:27:17.042Z,52.20
2019-03-22T08:29:49.619Z,52.20
2019-03-22T08:32:22.127Z,52.10
2019-03-22T08:34:55.563Z,52.00
2019-03-22T08:37:28.010Z,52.00
2019-03-22T08:40:00.523Z,52.20
2019-03-22T08:42:33.057Z,51.90
2019-03-22T08:45:05.822Z,51.80
2019-03-22T08:47:38.500Z,52.00
2019-03-22T08:50:11.289Z,51.50
2019-03-22T08:52:43.900Z,51.30
2019-03-22T08:55:16.534Z,51.20
2019-03-22T08:57:49.047Z,51.10
2019-03-22T09:00:21.781Z,51.00
2019-03-22T09:02:54.297Z,51.10
2019-03-22T09:05:27.915Z,51.00
2019-03-22T09:08:00.552Z,50.90
2019-03-22T09:10:33.097Z,50.90
2019-03-22T09:13:05.742Z,50.90
2019-03-22T09:15:41.930Z,50.80
2019-03-22T09:18:15.405Z,50.70
2019-03-22T09:20:47.121Z,50.70
2019-03-22T09:23:19.712Z,50.40
2019-03-22T09:25:52.302Z,50.30
2019-03-22T09:28:24.888Z,50.20
2019-03-22T09:31:09.443Z,50.10
2019-03-22T09:33:31.589Z,49.90
2019-03-22T09:36:04.133Z,49.70
2019-03-22T09:38:36.743Z,49.80
2019-03-22T09:41:09.621Z,49.90
2019-03-22T09:43:42.308Z,50.00
2019-03-22T09:46:15.372Z,50.10
2019-03-22T09:48:48.105Z,50.30
2019-03-22T09:51:21.956Z,50.30
2019-03-22T09:53:54.664Z,50.10
2019-03-22T09:56:27.318Z,49.90
2019-03-22T09:59:00.010Z,50.10
2019-03-22T10:01:32.811Z,49.90
2019-03-22T10:04:05.703Z,49.70
2019-03-22T10:06:39.452Z,49.50
2019-03-22T10:09:16.033Z,49.10
2019-03-22T10:11:48.602Z,48.50
2019-03-22T10:14:21.635Z,48.10
2019-03-22T10:16:54.215Z,48.20
2019-03-22T10:19:26.900Z,47.70
2019-03-22T10:22:00.043Z,46.60
2019-03-22T10:24:32.604Z,45.40
2019-03-22T10:27:05.471Z,46.00
2019-03-22T10:29:38.149Z,45.60
2019-03-22T10:32:10.777Z,44.70
2019-03-22T10:34:43.394Z,43.90
2019-03-22T10:37:15.999Z,43.50
2019-03-22T10:39:49.072Z,42.90
2019-03-22T10:42:21.676Z,42.30
2019-03-22T10:44:55.855Z,41.40
2019-03-22T10:47:29.023Z,40.00
2019-03-22T10:50:02.342Z,39.60
2019-03-22T10:52:35.544Z,39.20
2019-03-22T10:55:28.472Z,38.30
2019-03-22T10:57:44.905Z,37.70
2019-03-22T11:00:19.497Z,36.90
2019-03-22T11:02:52.673Z,35.50
2019-03-22T11:05:25.933Z,33.70
2019-03-22T11:07:59.110Z,33.80
2019-03-22T11:10:32.219Z,33.60
2019-03-22T11:13:05.694Z,33.40
2019-03-22T11:15:48.081Z,33.20
2019-03-22T11:18:13.603Z,32.80
2019-03-22T11:20:47.018Z,32.40
2019-03-22T11:23:20.086Z,31.80
2019-03-22T11:25:53.291Z,31.30
2019-03-22T11:28:26.544Z,30.60
2019-03-22T11:31:04.719Z,30.00
2019-03-22T11:33:34.932Z,30.30
2019-03-22T11:36:08.061Z,29.70
2019-03-22T11:38:41.251Z,29.60
2019-03-22T11:41:14.390Z,29.50
2019-03-22T11:43:47.546Z,29.10
2019-03-22T11:46:20.722Z,28.70
2019-03-22T11:48:53.893Z,28.50
2019-03-22T11:51:27.187Z,28.20
2019-03-22T11:54:00.428Z,27.90
2019-03-22T11:56:33.590Z,27.20
2019-03-22T11:59:06.666Z,26.70
2019-03-22T12:01:39.904Z,26.80
2019-03-22T12:04:12.978Z,26.80
2019-03-22T12:06:47.324Z,26.60
2019-03-22T12:09:20.411Z,26.00
2019-03-22T12:11:53.546Z,26.10
2019-03-22T12:14:26.727Z,25.90
2019-03-22T12:17:00.314Z,25.90
2019-03-22T12:19:34.446Z,25.70
2019-03-22T12:22:07.921Z,25.20
2019-03-22T12:24:41.157Z,24.80
2019-03-22T12:27:14.267Z,24.80
2019-03-22T12:29:47.522Z,24.50
2019-03-22T12:32:20.770Z,23.60
2019-03-22T12:34:54.209Z,24.00
2019-03-22T12:37:29.280Z,24.00
2019-03-22T12:40:02.511Z,23.30
2019-03-22T12:42:35.757Z,23.50
2019-03-22T12:45:13.518Z,23.10
2019-03-22T12:47:46.753Z,22.70
2019-03-22T12:50:20.009Z,23.00
2019-03-22T12:52:53.968Z,22.80
2019-03-22T12:55:27.184Z,22.90
2019-03-22T12:58:00.372Z,22.20
2019-03-22T13:00:34.165Z,21.70
2019-03-22T13:03:08.565Z,21.90
2019-03-22T13:05:44.223Z,22.10
2019-03-22T13:08:17.310Z,21.90
2019-03-22T13:10:51.217Z,22.10
2019-03-22T13:13:24.368Z,22.30
2019-03-22T13:15:57.479Z,21.80
2019-03-22T13:18:30.706Z,22.00
2019-03-22T13:21:03.853Z,21.80
2019-03-22T13:23:37.094Z,21.40
2019-03-22T13:26:10.260Z,21.00
2019-03-22T13:28:44.584Z,20.90
2019-03-22T13:31:19.227Z,21.10
2019-03-22T13:33:52.364Z,21.10
2019-03-22T13:36:25.505Z,20.70
2019-03-22T13:38:58.620Z,20.90
2019-03-22T13:41:31.842Z,20.90
2019-03-22T13:44:05.183Z,21.00
2019-03-22T13:46:40.446Z,20.80
2019-03-22T13:49:13.393Z,20.90
2019-03-22T13:51:46.581Z,20.90
2019-03-22T13:54:19.790Z,21.00
2019-03-22T13:56:52.887Z,20.90
2019-03-22T13:59:26.144Z,21.00
2019-03-22T14:01:59.360Z,21.00
2019-03-22T14:04:32.416Z,21.00
2019-03-22T14:07:05.727Z,21.10
2019-03-22T14:09:39.033Z,21.10
2019-03-22T14:12:14.165Z,21.10
2019-03-22T14:14:46.775Z,21.20
2019-03-22T14:17:20.120Z,21.40
2019-03-22T14:19:53.310Z,21.70
2019-03-22T14:22:26.634Z,22.10
2019-03-22T14:24:59.836Z,22.40
2019-03-22T14:27:32.991Z,22.60
2019-03-22T14:30:07.428Z,22.30
2019-03-22T14:32:40.635Z,22.20
2019-03-22T14:35:13.904Z,22.10
2019-03-22T14:37:48.831Z,22.20
2019-03-22T14:40:21.997Z,22.10
2019-03-22T14:42:55.130Z,21.70
2019-03-22T14:45:28.386Z,21.40
2019-03-22T14:48:01.672Z,21.10
2019-03-22T14:50:35.029Z,20.90
2019-03-22T14:53:08.374Z,20.70
2019-03-22T14:55:41.418Z,20.70
2019-03-22T14:58:14.721Z,21.10
2019-03-22T15:00:47.839Z,21.30
2019-03-22T15:03:28.101Z,21.50
2019-03-22T15:06:01.430Z,21.20
2019-03-22T15:08:34.581Z,21.00
2019-03-22T15:11:07.792Z,20.90
2019-03-22T15:13:49.753Z,20.90
2019-03-22T15:16:39.948Z,20.90
2019-03-22T15:19:34.254Z,20.90
2019-03-22T15:22:15.134Z,20.70
2019-03-22T15:25:06.821Z,21.00
2019-03-22T15:28:01.340Z,21.10
2019-03-22T15:31:02.690Z,21.20
2019-03-22T15:33:50.615Z,21.20
2019-03-22T15:36:40.992Z,21.30
2019-03-22T15:39:41.367Z,21.50
2019-03-22T15:42:15.173Z,21.60
2019-03-22T15:44:47.835Z,21.70
2019-03-22T15:47:20.876Z,21.80
2019-03-22T15:49:53.600Z,22.00
2019-03-22T15:52:26.387Z,22.10
2019-03-22T15:54:59.062Z,22.20
2019-03-22T15:57:31.727Z,22.20
2019-03-22T16:00:07.950Z,22.30
2019-03-22T16:02:41.905Z,22.20
2019-03-22T16:05:15.640Z,22.30
2019-03-22T16:07:48.335Z,22.30
2019-03-22T16:10:21.132Z,22.30
2019-03-22T16:12:55.167Z,22.40
2019-03-22T16:15:27.892Z,22.40
2019-03-22T16:18:00.614Z,22.40
2019-03-22T16:20:33.951Z,22.50
2019-03-22T16:23:06.550Z,22.60
2019-03-22T16:25:39.305Z,22.60
2019-03-22T16:28:11.963Z,22.60
2019-03-22T16:30:44.674Z,22.60
2019-03-22T16:33:17.286Z,22.60
2019-03-22T16:35:49.895Z,22.70
2019-03-22T16:38:22.646Z,22.70
2019-03-22T16:40:55.431Z,22.70
2019-03-22T16:43:28.103Z,22.70
2019-03-22T16:46:00.769Z,22.80
2019-03-22T16:48:33.474Z,22.70
2019-03-22T16:51:06.226Z,22.70
2019-03-22T16:53:38.826Z,22.60
2019-03-22T16:56:11.484Z,23.00
2019-03-22T16:58:44.043Z,22.60
2019-03-22T17:01:16.691Z,22.70
2019-03-22T17:03:49.446Z,22.70
2019-03-22T17:06:23.196Z,22.70
2019-03-22T17:08:56.000Z,22.80
2019-03-22T17:11:28.722Z,22.80
2019-03-22T17:14:02.452Z,23.40
2019-03-22T17:16:36.141Z,22.80
2019-03-22T17:19:08.791Z,23.00
2019-03-22T17:21:41.462Z,23.10
2019-03-22T17:24:14.145Z,23.10
2019-03-22T17:26:48.666Z,23.20
2019-03-22T17:29:21.350Z,23.20
2019-03-22T17:31:54.028Z,23.20
2019-03-22T17:34:26.738Z,23.30
2019-03-22T17:36:59.440Z,23.30
2019-03-22T17:39:31.991Z,23.30
2019-03-22T17:42:04.717Z,23.40
2019-03-22T17:44:40.346Z,23.50
2019-03-22T17:47:13.031Z,23.50
2019-03-22T17:49:48.351Z,23.50
2019-03-22T17:52:19.932Z,23.60
2019-03-22T17:54:52.603Z,23.60
2019-03-22T17:57:26.624Z,23.70
2019-03-22T17:59:59.330Z,23.80
2019-03-22T18:02:31.932Z,23.80
2019-03-22T18:05:04.892Z,23.90
2019-03-22T18:07:37.695Z,24.00
2019-03-22T18:10:12.212Z,24.00
2019-03-22T18:12:44.877Z,24.00
2019-03-22T18:15:17.602Z,24.10
2019-03-22T18:17:53.137Z,24.20
2019-03-22T18:20:25.963Z,24.30
2019-03-22T18:23:00.419Z,24.30
2019-03-22T18:25:33.193Z,24.50
2019-03-22T18:28:05.933Z,24.50
2019-03-22T18:30:39.686Z,24.60
2019-03-22T18:33:12.348Z,24.70
2019-03-22T18:35:44.960Z,24.70
2019-03-22T18:38:17.524Z,24.90
2019-03-22T18:40:50.064Z,25.00
2019-03-22T18:43:22.598Z,25.10
2019-03-22T18:45:58.516Z,25.60
2019-03-22T18:48:30.815Z,25.70
2019-03-22T18:51:03.478Z,25.80
2019-03-22T18:53:36.069Z,25.70
2019-03-22T18:56:08.667Z,25.90
2019-03-22T18:58:41.382Z,26.00
2019-03-22T19:01:13.935Z,26.20
2019-03-22T19:03:46.914Z,26.30
2019-03-22T19:06:21.732Z,26.40
2019-03-22T19:08:53.832Z,26.50
2019-03-22T19:11:26.514Z,26.70
2019-03-22T19:13:59.212Z,26.90
2019-03-22T19:16:31.886Z,27.00
2019-03-22T19:19:04.427Z,27.30
2019-03-22T19:21:37.189Z,27.20
2019-03-22T19:24:09.707Z,27.40
2019-03-22T19:26:42.312Z,28.10
2019-03-22T19:29:15.216Z,27.70
2019-03-22T19:31:48.867Z,28.30
2019-03-22T19:34:21.672Z,27.80
2019-03-22T19:36:54.254Z,28.10
2019-03-22T19:39:26.962Z,28.20
2019-03-22T19:41:59.690Z,28.20
2019-03-22T19:44:32.483Z,28.60
2019-03-22T19:47:05.305Z,28.50
2019-03-22T19:49:38.079Z,28.80
2019-03-22T19:52:10.689Z,28.70
2019-03-22T19:54:43.401Z,29.00
2019-03-22T19:57:17.009Z,29.00
2019-03-22T19:59:50.629Z,29.10
2019-03-22T20:02:23.313Z,29.20
2019-03-22T20:05:04.463Z,29.30
2019-03-22T20:07:32.264Z,29.40
2019-03-22T20:10:05.717Z,29.40
2019-03-22T20:12:38.385Z,29.60
2019-03-22T20:15:11.669Z,29.60
2019-03-22T20:17:44.316Z,29.60
2019-03-22T20:20:17.455Z,29.90
2019-03-22T20:22:50.108Z,30.00
2019-03-22T20:25:22.882Z,30.20
2019-03-22T20:27:55.532Z,30.20
2019-03-22T20:30:29.441Z,30.30
2019-03-22T20:33:02.036Z,30.30
2019-03-22T20:35:34.752Z,30.70
2019-03-22T20:38:09.207Z,30.60
2019-03-22T20:40:41.887Z,30.90
2019-03-22T20:43:14.590Z,31.00
2019-03-22T20:45:47.122Z,31.00
2019-03-22T20:48:20.080Z,30.90
2019-03-22T20:50:52.715Z,31.00
2019-03-22T20:53:25.375Z,31.10
2019-03-22T20:55:58.152Z,30.80
2019-03-22T20:58:32.209Z,30.70
2019-03-22T21:01:06.332Z,30.80
2019-03-22T21:03:40.102Z,31.30
2019-03-22T21:06:12.788Z,31.20
2019-03-22T21:08:45.510Z,31.40
2019-03-22T21:11:18.413Z,31.20
2019-03-22T21:13:51.139Z,31.20
2019-03-22T21:16:26.659Z,31.30
2019-03-22T21:18:59.489Z,31.60
2019-03-22T21:21:36.679Z,31.90
2019-03-22T21:24:08.735Z,32.00
2019-03-22T21:26:40.844Z,32.10
2019-03-22T21:29:13.498Z,32.10
2019-03-22T21:31:47.331Z,31.90
2019-03-22T21:34:19.897Z,32.20
2019-03-22T21:36:52.608Z,32.30
2019-03-22T21:39:25.409Z,32.20
2019-03-22T21:41:58.217Z,32.30
2019-03-22T21:44:30.793Z,32.30
2019-03-22T21:47:03.498Z,32.30
2019-03-22T21:49:36.114Z,32.20
2019-03-22T21:52:08.729Z,32.30
2019-03-22T21:54:41.624Z,32.40
2019-03-22T21:57:14.339Z,32.40
2019-03-22T21:59:47.015Z,32.50
2019-03-22T22:02:19.840Z,32.50
2019-03-22T22:04:52.566Z,32.70
2019-03-22T22:07:25.240Z,32.80
2019-03-22T22:09:57.852Z,33.00
2019-03-22T22:12:30.451Z,33.00
2019-03-22T22:15:02.995Z,33.30
2019-03-22T22:17:35.698Z,33.00
2019-03-22T22:20:08.541Z,33.30
2019-03-22T22:22:41.914Z,33.30
2019-03-22T22:25:14.682Z,33.00
2019-03-22T22:27:47.248Z,33.80
2019-03-22T22:30:19.940Z,33.80
2019-03-22T22:32:53.989Z,34.10
2019-03-22T22:35:26.651Z,34.30
2019-03-22T22:37:59.451Z,34.20
2019-03-22T22:40:31.981Z,34.30
2019-03-22T22:43:06.442Z,34.30
2019-03-22T22:45:39.104Z,34.30
2019-03-22T22:48:11.765Z,34.50
2019-03-22T22:50:44.887Z,34.70
2019-03-22T22:53:17.508Z,34.90
2019-03-22T22:55:50.107Z,34.90
2019-03-22T22:58:22.710Z,34.80
2019-03-22T23:00:55.344Z,34.80
2019-03-22T23:03:28.009Z,34.80
2019-03-22T23:06:09.052Z,34.70
2019-03-22T23:08:35.164Z,34.40
2019-03-22T23:11:07.981Z,34.60
2019-03-22T23:13:40.543Z,34.70
2019-03-22T23:16:13.206Z,34.90
2019-03-22T23:18:45.894Z,35.00
2019-03-22T23:21:18.557Z,34.70
2019-03-22T23:23:51.056Z,35.20
2019-03-22T23:26:23.610Z,35.20
2019-03-22T23:28:56.154Z,35.40
2019-03-22T23:31:30.471Z,35.30
2019-03-22T23:34:04.202Z,35.40
2019-03-22T23:36:36.811Z,35.40
2019-03-22T23:39:10.578Z,35.30
2019-03-22T23:41:43.132Z,35.30
2019-03-22T23:44:15.931Z,35.50
2019-03-22T23:46:48.593Z,35.80
2019-03-22T23:49:21.545Z,35.80
2019-03-22T23:51:54.313Z,35.50
2019-03-22T23:54:26.937Z,35.90
2019-03-22T23:56:59.683Z,35.80
2019-03-22T23:59:32.220Z,36.00
